User: anonymous   Login
Location: Zalaegerszeg
(46.8417°N, 16.8416°E)
Time: 06:06:29
(UTC+02:00)
Language:

BepiColombo Flyby

On April 10 2020, the Mercury probe BepiColombo will fly past the Earth. The Earth will provide a "gravity assist" and is the first of several flybys of the Earth, Venus and Mercury before it arrives in Mercury orbit in 2025. If you know where to look and live in the right part of the world, you will have a chance to see it through binoculars or a telescope. You can use the two general charts below and the following table to get an idea of whether you will be able to see it or not.

Click on a table row to load a finder chart corresponding to that time, or alternatively, you can go straight to a finder chart for a time near closest approach by clicking here.

Note: All times in the tables and charts are given in your local time, adjusted for daylight savings where appropriate.

Flyby data
Time of closest approachApr 10, 06:24:57
Distance of closest approach19,055 km
Speed at closest approach7.596 km/s
Speed at infinity (rel. to Earth)3.984 km/s

Position Table (click on a row of the table to load a finder chart)

Time Distance (km) Brightness Altitude Azimuth Right ascension Declination Constellation Sun altitude
Apr 9, 22:00:00155,90716.1-26.1°326.0°0h 23.3m10° 45'Pisces-23.0°
Apr 9, 22:30:00148,10115.9-29.1°334.2°0h 21.4m10° 27'Pisces-26.5°
Apr 9, 23:00:00140,18215.7-31.5°343.0°0h 19.2m10° 6'Pisces-29.6°
Apr 9, 23:30:00132,14015.6-33.0°352.3°0h 16.9m9° 43'Pisces-32.1°
Apr 10, 00:00:00123,96815.4-33.7°1.9°0h 14.3m9° 17'Pisces-33.8°
Apr 10, 00:30:00115,65915.2-33.6°11.7°0h 11.3m8° 48'Pisces-34.9°
Apr 10, 01:00:00107,20715.0-32.5°21.6°0h 7.8m8° 14'Pisces-35.1°
Apr 10, 01:30:0098,60414.7-30.5°31.2°0h 3.7m7° 35'Pisces-34.5°
Apr 10, 02:00:0089,84614.4-27.7°40.7°23h 58.8m6° 48'Pisces-33.2°
Apr 10, 02:30:0080,92814.1-24.1°50.0°23h 52.6m5° 50'Pisces-31.1°
Apr 10, 03:00:0071,85013.8-19.9°59.1°23h 44.8m4° 37'Pisces-28.4°
Apr 10, 03:30:0062,61313.3-14.9°68.5°23h 34.6m3° 1'Pisces-25.1°
Apr 10, 04:00:0053,23312.8-9.4°78.4°23h 20.7m0° 49'Pisces-21.3°
Apr 10, 04:30:0043,76112.2-3.2°89.9°23h 0.6m-2° 23'Pisces-17.2°
Apr 10, 05:00:0034,35011.43.5°104.6°22h 29.2m-7° 25'Aquarius-12.7°
Apr 10, 05:30:0025,49510.59.9°126.5°21h 33.5m-16° 3'Capricornus-8.0°
Apr 10, 06:00:0018,8849.411.2°163.4°19h 37.0m-30° 7'Sagittarius-3.2°
Apr 10, 06:30:0018,3268.9-2.6°211.9°16h 3.8m-37° 46'Lupus1.9°
Apr 10, 07:00:0024,2979.3-20.5°248.6°13h 24.3m-29° 13'Hydra6.9°
Apr 10, 07:30:0032,843--32.5°273.3°12h 9.7m-20° 53'Corvus12.1°
Apr 10, 08:00:0041,96610.5-40.2°292.8°11h 30.0m-15° 28'Crater17.2°
Apr 10, 08:30:0051,10511.0-45.3°310.2°11h 5.6m-11° 52'Crater22.3°
Apr 10, 09:00:0060,10511.4-48.3°326.8°10h 49.0m-9° 20'Sextans27.2°
Apr 10, 09:30:0068,92311.7-49.6°342.8°10h 36.8m-7° 28'Sextans32.0°
Apr 10, 10:00:0077,55412.0-49.3°358.0°10h 27.6m-6° 2'Sextans36.5°
Apr 10, 10:30:0086,00612.2-47.6°12.0°10h 20.1m-4° 53'Sextans40.7°
Apr 10, 11:00:0094,28912.4-44.7°24.4°10h 14.1m-3° 56'Sextans44.3°
Apr 10, 11:30:00102,41712.6-41.0°35.3°10h 8.9m-3° 9'Sextans47.4°
Apr 10, 12:00:00110,40512.8-36.6°44.9°10h 4.4m-2° 29'Sextans49.7°
Apr 10, 12:30:00118,26713.0-31.7°53.3°10h 0.5m-1° 55'Sextans51.0°
Apr 10, 13:00:00126,01813.1-26.4°60.9°9h 57.0m-1° 25'Sextans51.3°
Apr 10, 13:30:00133,67213.2-21.0°67.7°9h 53.7m-0° 59'Sextans50.6°
Apr 10, 14:00:00141,24613.4-15.3°74.1°9h 50.8m-0° 35'Sextans48.9°
 

DLR